Time;durP1;ratioP1;P1;durP2;ratioP2;P2;SDS_P1;SDS_P2;PMS_P1;PMS_P2;Temp;Humidity;BMP_temperature;BMP_pressure;BME280_temperature;BME280_humidity;BME280_pressure;Samples;Min_cycle;Max_cycle;Signal;HPM_P1;HPM_P2
2023/07/14 00:00:30;;;;;;;;;5.00;5.00;;;;;23.27;42.88;101350.44;5060180;28;48355;-67
2023/07/14 00:02:57;;;;;;;;;5.67;5.67;;;;;23.28;42.73;101346.66;5078377;28;45430;-67
2023/07/14 00:05:27;;;;;;;;;4.00;4.00;;;;;23.21;43.03;101348.53;5077998;28;45360;-68
2023/07/14 00:07:54;;;;;;;;;4.33;4.33;;;;;23.23;43.16;101332.09;5078437;27;45598;-67
2023/07/14 00:10:26;;;;;;;;;6.67;5.33;;;;;22.78;43.26;101264.13;5077802;27;46597;-69
2023/07/14 00:12:52;;;;;;;;;3.00;3.00;;;;;22.77;43.38;101270.59;5078366;28;45470;-68
2023/07/14 00:15:19;;;;;;;;;3.33;3.33;;;;;23.05;43.27;101314.59;5078416;28;45344;-66
2023/07/14 00:17:46;;;;;;;;;6.00;4.33;;;;;23.10;43.61;101322.09;5078571;27;45186;-67
2023/07/14 00:20:32;;;;;;;;;6.00;5.00;;;;;23.06;43.42;101312.72;5077992;27;47562;-68
2023/07/14 00:22:58;;;;;;;;;3.00;3.00;;;;;23.09;43.58;101314.16;5078281;28;45340;-67
2023/07/14 00:25:25;;;;;;;;;8.00;6.00;;;;;23.07;43.46;101314.38;5078347;27;45381;-67
2023/07/14 00:27:52;;;;;;;;;5.67;4.67;;;;;23.04;43.42;101314.81;5078543;28;45673;-67
2023/07/14 00:30:19;;;;;;;;;7.00;4.00;;;;;23.05;43.80;101320.03;5078229;28;46549;-67
2023/07/14 00:32:46;;;;;;;;;5.00;5.00;;;;;23.01;43.78;101315.22;5078301;27;45441;-69
2023/07/14 00:35:22;;;;;;;;;5.00;4.33;;;;;23.02;43.52;101320.41;5078305;28;45280;-67
2023/07/14 00:37:48;;;;;;;;;4.00;4.00;;;;;23.00;43.57;101308.13;5078263;27;45486;-68
2023/07/14 00:40:21;;;;;;;;;3.00;3.00;;;;;22.92;44.25;101303.78;5077589;28;47567;-67
2023/07/14 00:42:52;;;;;;;;;7.67;5.00;;;;;22.94;44.12;101307.09;5059732;28;45742;-67
2023/07/14 00:45:21;;;;;;;;;3.00;3.00;;;;;22.95;44.10;101316.06;5078163;27;45294;-67
2023/07/14 00:47:52;;;;;;;;;3.67;2.33;;;;;22.91;44.23;101302.09;5078185;28;45193;-67
2023/07/14 00:50:40;;;;;;;;;6.67;5.00;;;;;22.94;43.98;101300.84;5077733;28;45857;-69
2023/07/14 00:53:15;;;;;;;;;6.00;4.67;;;;;22.92;43.69;101306.47;5078011;28;45276;-68
2023/07/14 00:55:45;;;;;;;;;7.67;7.67;;;;;22.86;43.98;101293.78;5077572;28;45465;-67
2023/07/14 00:58:25;;;;;;;;;6.33;5.67;;;;;22.89;43.90;101303.38;5077629;28;45497;-68
2023/07/14 01:01:10;;;;;;;;;7.00;6.00;;;;;22.97;43.77;101300.41;5077529;28;48001;-67
2023/07/14 01:03:43;;;;;;;;;7.00;5.67;;;;;22.64;43.60;101248.97;5077670;28;45185;-67
2023/07/14 01:06:17;;;;;;;;;10.00;10.00;;;;;22.91;43.68;101288.53;5077622;27;45323;-67
2023/07/14 01:09:05;;;;;;;;;12.33;12.33;;;;;22.77;44.33;101268.72;5077904;28;45348;-69
2023/07/14 01:11:45;;;;;;;;;9.00;8.33;;;;;22.80;44.88;101280.19;5077094;28;46661;-67
2023/07/14 01:14:31;;;;;;;;;10.33;8.67;;;;;22.40;44.10;101217.91;5077329;28;45352;-66
2023/07/14 01:16:58;;;;;;;;;10.67;10.00;;;;;22.70;44.49;101259.78;5076293;28;45608;-67
2023/07/14 01:19:31;;;;;;;;;10.00;9.00;;;;;22.75;44.31;101276.22;5077113;27;45457;-67
2023/07/14 01:22:26;;;;;;;;;8.00;8.00;;;;;22.77;44.57;101274.13;5058860;28;47767;-67
2023/07/14 01:25:35;;;;;;;;;11.67;10.67;;;;;22.76;44.44;101277.91;5076868;28;45291;-68
2023/07/14 01:28:10;;;;;;;;;12.33;10.00;;;;;22.68;44.77;101258.31;5013359;28;45549;-67
2023/07/14 01:30:37;;;;;;;;;13.00;11.00;;;;;22.78;44.75;101264.97;5059233;28;45253;-67
2023/07/14 01:33:04;;;;;;;;;15.00;10.00;;;;;22.68;44.56;101242.06;5077292;27;46545;-67
2023/07/14 01:35:39;;;;;;;;;13.33;10.33;;;;;22.69;45.00;101249.97;5076928;28;45443;-66
2023/07/14 01:38:06;;;;;;;;;13.33;12.33;;;;;22.63;44.77;101247.28;5077183;28;45451;-68
2023/07/14 01:40:33;;;;;;;;;14.33;14.33;;;;;22.26;44.83;101195.44;5077003;28;45505;-67
2023/07/14 01:43:02;;;;;;;;;17.67;15.00;;;;;22.15;45.33;101191.47;5077242;28;46027;-68
2023/07/14 01:45:59;;;;;;;;;13.67;13.33;;;;;22.48;45.32;101241.25;5076949;28;45354;-68
2023/07/14 01:48:30;;;;;;;;;14.67;11.67;;;;;22.58;45.83;101245.19;5057379;28;45401;-66
2023/07/14 01:50:59;;;;;;;;;17.67;15.67;;;;;22.51;45.47;101236.25;5077309;28;45544;-67
2023/07/14 01:53:32;;;;;;;;;19.33;15.33;;;;;22.55;45.31;101237.50;5076825;27;46803;-68
2023/07/14 01:56:04;;;;;;;;;15.00;15.00;;;;;22.57;45.60;101245.41;5076425;28;45179;-67
2023/07/14 01:58:33;;;;;;;;;18.33;14.67;;;;;22.54;45.33;101238.53;5076912;27;45475;-67
2023/07/14 02:01:01;;;;;;;;;14.00;13.67;;;;;22.50;45.32;101226.44;5076992;27;45347;-67
2023/07/14 02:03:36;;;;;;;;;20.00;13.67;;;;;22.55;45.51;101236.66;5076653;28;46815;-68
2023/07/14 02:06:01;;;;;;;;;15.67;12.67;;;;;22.46;45.19;101217.09;5076676;27;45581;-67
2023/07/14 02:08:27;;;;;;;;;17.33;17.33;;;;;22.55;45.03;101225.81;5076860;28;45466;-67
2023/07/14 02:10:52;;;;;;;;;17.67;16.67;;;;;22.57;45.01;101235.41;5076691;27;45364;-67
2023/07/14 02:13:20;;;;;;;;;10.67;10.00;;;;;22.51;45.40;101232.72;5058424;27;46553;-68
2023/07/14 02:15:45;;;;;;;;;10.00;10.00;;;;;22.42;45.43;101221.22;5076546;28;45434;-67
2023/07/14 02:18:15;;;;;;;;;11.00;9.00;;;;;22.35;45.76;101217.72;5076549;28;45340;-67
2023/07/14 02:20:44;;;;;;;;;12.33;10.33;;;;;22.45;45.73;101229.81;5076776;28;45523;-67
2023/07/14 02:23:19;;;;;;;;;10.33;10.33;;;;;22.46;45.50;101227.94;5076621;28;45955;-65
2023/07/14 02:25:47;;;;;;;;;14.00;13.67;;;;;22.39;45.32;101221.66;5075917;28;45246;-69
2023/07/14 02:28:13;;;;;;;;;12.00;11.67;;;;;22.47;45.22;101237.72;5059698;28;45423;-68
2023/07/14 02:30:42;;;;;;;;;14.33;12.33;;;;;22.40;45.77;101234.16;5062166;28;45318;-67
2023/07/14 02:33:22;;;;;;;;;11.67;8.67;;;;;22.16;46.02;101214.81;5080024;28;45740;-67
2023/07/14 02:36:08;;;;;;;;;9.00;9.00;;;;;22.17;46.49;101232.72;5061808;28;45620;-68
2023/07/14 02:38:34;;;;;;;;;11.67;10.00;;;;;22.16;46.62;101238.34;5078591;28;45277;-67
2023/07/14 02:41:08;;;;;;;;;10.00;8.00;;;;;22.16;46.40;101233.75;5079940;28;45367;-68
2023/07/14 02:43:34;;;;;;;;;9.00;9.00;;;;;22.03;46.78;101222.06;5079995;28;46317;-67
2023/07/14 02:46:19;;;;;;;;;7.67;7.00;;;;;22.01;46.96;101226.84;5079866;28;45198;-66
2023/07/14 02:48:49;;;;;;;;;7.33;6.33;;;;;21.97;47.08;101223.72;5080027;28;45305;-69
2023/07/14 02:51:14;;;;;;;;;14.00;9.00;;;;;21.96;47.03;101226.63;5079960;28;45339;-67
2023/07/14 02:53:40;;;;;;;;;9.67;9.67;;;;;21.97;46.92;101228.31;5079535;27;46469;-68
2023/07/14 02:56:06;;;;;;;;;6.67;6.67;;;;;21.97;47.60;101223.72;5079182;27;45828;-68
2023/07/14 02:58:33;;;;;;;;;8.00;8.00;;;;;22.01;47.53;101224.13;5078124;27;45373;-68
2023/07/14 03:00:58;;;;;;;;;10.00;7.67;;;;;21.92;47.33;101203.72;5061791;27;45284;-68
2023/07/14 03:03:24;;;;;;;;;12.00;9.67;;;;;21.67;47.21;101169.16;5079601;28;45761;-68
2023/07/14 03:05:51;;;;;;;;;8.00;6.00;;;;;21.98;47.17;101217.25;5079399;28;45292;-67
2023/07/14 03:08:17;;;;;;;;;8.00;8.00;;;;;21.96;47.55;101230.19;5079687;27;45325;-67
2023/07/14 03:10:45;;;;;;;;;7.67;7.67;;;;;21.86;47.29;101205.41;5079427;28;45514;-68
2023/07/14 03:13:11;;;;;;;;;7.00;7.00;;;;;21.88;47.28;101219.56;5079243;27;47497;-68
2023/07/14 03:15:36;;;;;;;;;10.00;8.33;;;;;21.85;47.64;101195.63;5079267;28;45399;-68
2023/07/14 03:18:02;;;;;;;;;5.67;5.67;;;;;21.91;47.74;101202.91;5079646;28;45534;-68
2023/07/14 03:20:27;;;;;;;;;4.00;3.00;;;;;21.94;48.08;101185.41;5061441;28;45207;-66
2023/07/14 03:22:53;;;;;;;;;9.33;8.00;;;;;21.98;47.48;101186.66;5079016;28;46438;-67
2023/07/14 03:25:18;;;;;;;;;8.67;7.33;;;;;21.59;47.56;101128.75;5078773;28;45193;-67
2023/07/14 03:27:45;;;;;;;;;10.33;8.67;;;;;22.01;47.62;101192.47;5079604;27;45313;-68
2023/07/14 03:30:11;;;;;;;;;11.33;8.00;;;;;21.98;47.27;101187.47;5061192;27;45341;-68
2023/07/14 03:32:37;;;;;;;;;8.33;8.33;;;;;21.97;47.46;101191.22;5079175;27;46692;-66
2023/07/14 03:35:02;;;;;;;;;9.00;6.00;;;;;21.99;47.61;101194.56;5078983;27;45370;-68
2023/07/14 03:37:27;;;;;;;;;8.00;8.00;;;;;21.95;47.79;101179.78;5061076;28;45566;-67
2023/07/14 03:39:53;;;;;;;;;7.00;7.00;;;;;21.89;47.54;101169.78;5077833;27;45567;-67
2023/07/14 03:42:18;;;;;;;;;5.67;5.00;;;;;21.82;47.71;101160.81;5078390;28;65197;-68
2023/07/14 03:44:43;;;;;;;;;5.33;5.33;;;;;21.90;47.81;101181.44;5043738;28;46046;-67
2023/07/14 03:47:09;;;;;;;;;5.67;5.67;;;;;21.60;47.42;101132.28;5078861;28;45319;-68
2023/07/14 03:49:34;;;;;;;;;5.33;5.33;;;;;21.86;47.87;101181.03;5060832;28;45563;-68
2023/07/14 03:52:00;;;;;;;;;6.00;6.00;;;;;21.83;47.77;101176.03;5060737;28;48550;-67
2023/07/14 03:54:25;;;;;;;;;8.00;7.00;;;;;21.72;47.83;101155.00;5060649;28;45247;-67
2023/07/14 03:56:54;;;;;;;;;8.67;5.67;;;;;21.79;48.02;101156.66;5078614;28;45465;-68
2023/07/14 03:59:20;;;;;;;;;8.00;8.00;;;;;21.80;48.20;101152.06;5078862;28;45518;-66
2023/07/14 04:01:45;;;;;;;;;10.33;8.00;;;;;21.76;48.44;101161.66;5078561;28;45446;-67
2023/07/14 04:04:10;;;;;;;;;8.67;6.33;;;;;21.78;48.48;101168.53;5078450;28;45404;-66
2023/07/14 04:06:36;;;;;;;;;11.67;9.00;;;;;21.78;48.62;101175.81;5078851;28;45244;-67
2023/07/14 04:09:01;;;;;;;;;10.00;9.00;;;;;21.72;48.53;101160.41;5078907;28;45474;-67
2023/07/14 04:11:27;;;;;;;;;8.00;8.00;;;;;21.75;48.23;101170.81;5078288;28;45739;-67
2023/07/14 04:13:52;;;;;;;;;7.33;7.33;;;;;21.70;48.71;101167.91;5078514;27;45530;-67
2023/07/14 04:16:23;;;;;;;;;9.00;9.00;;;;;21.65;48.83;101171.25;5060151;28;45509;-67
2023/07/14 04:18:49;;;;;;;;;12.33;10.67;;;;;21.66;48.41;101162.06;5078757;28;45709;-67
2023/07/14 04:21:15;;;;;;;;;10.00;9.00;;;;;21.59;48.33;101152.25;5078298;28;45635;-68
2023/07/14 04:23:40;;;;;;;;;9.67;9.67;;;;;21.40;49.21;101135.78;5078338;28;45406;-67
2023/07/14 04:26:12;;;;;;;;;10.00;8.33;;;;;21.39;49.07;101136.84;5078180;27;45390;-66
2023/07/14 04:28:37;;;;;;;;;12.00;9.33;;;;;21.27;49.00;101116.84;5078477;28;45281;-68
2023/07/14 04:31:03;;;;;;;;;13.00;10.33;;;;;21.51;48.93;101159.56;5078195;28;48510;-66
2023/07/14 04:33:29;;;;;;;;;11.67;7.67;;;;;21.52;48.94;101150.41;5078252;28;45232;-66
2023/07/14 04:35:56;;;;;;;;;11.67;11.67;;;;;21.53;49.25;101145.81;5078407;27;45526;-67
2023/07/14 04:38:23;;;;;;;;;11.33;8.67;;;;;21.49;48.94;101150.81;5078297;27;45245;-66
2023/07/14 04:40:49;;;;;;;;;13.00;12.67;;;;;21.41;49.12;101136.63;5077513;27;45612;-66
2023/07/14 04:43:15;;;;;;;;;14.00;10.67;;;;;21.43;49.04;101142.69;5059469;28;45702;-67
2023/07/14 04:45:43;;;;;;;;;8.33;8.33;;;;;21.29;48.88;101113.94;5077953;27;45329;-67
2023/07/14 04:48:11;;;;;;;;;7.33;6.33;;;;;21.32;49.18;101130.59;5078350;28;45267;-68
2023/07/14 04:50:36;;;;;;;;;6.00;6.00;;;;;21.27;49.21;101124.97;5077476;28;46526;-68
2023/07/14 04:53:05;;;;;;;;;8.67;7.00;;;;;21.30;49.29;101134.53;5077602;27;45549;-68
2023/07/14 04:55:41;;;;;;;;;6.00;6.00;;;;;21.35;49.28;101135.59;5077658;27;45264;-67
2023/07/14 04:58:08;;;;;;;;;4.33;4.33;;;;;21.37;48.97;101121.84;5077809;28;45472;-67
2023/07/14 05:00:35;;;;;;;;;8.33;6.33;;;;;21.28;49.17;101096.88;5077433;28;47442;-66
2023/07/14 05:03:01;;;;;;;;;7.67;7.67;;;;;21.33;49.42;101107.09;5077547;28;45391;-67
2023/07/14 05:05:26;;;;;;;;;6.00;6.00;;;;;21.23;49.35;101099.34;5077719;28;45360;-68
2023/07/14 05:07:52;;;;;;;;;8.00;7.00;;;;;21.21;49.69;101088.72;5077909;27;45284;-67
2023/07/14 05:10:19;;;;;;;;;6.00;6.00;;;;;21.20;49.70;101080.81;5077371;28;45510;-66
2023/07/14 05:12:45;;;;;;;;;6.67;6.00;;;;;21.22;49.68;101073.31;5077601;28;45282;-67
2023/07/14 05:15:10;;;;;;;;;8.67;6.00;;;;;21.21;49.28;101080.59;5077333;28;45320;-67
2023/07/14 05:17:41;;;;;;;;;5.00;5.00;;;;;21.18;49.79;101069.38;5059175;28;45296;-66
2023/07/14 05:20:10;;;;;;;;;7.00;7.00;;;;;21.16;49.85;101061.47;5077369;28;45666;-67
2023/07/14 05:22:44;;;;;;;;;6.67;5.67;;;;;21.12;49.25;101053.97;5077238;28;45313;-66
2023/07/14 05:25:10;;;;;;;;;6.33;5.00;;;;;21.12;49.35;101053.97;5076955;28;45432;-67
2023/07/14 05:27:38;;;;;;;;;5.50;5.50;;;;;20.73;49.54;100977.19;5077483;28;45274;-66
2023/07/14 05:30:04;;;;;;;;;5.33;5.33;;;;;21.03;49.60;101030.88;5077117;28;47495;-66
2023/07/14 05:32:29;;;;;;;;;5.33;5.33;;;;;21.00;49.36;101036.69;5076960;28;45384;-66
2023/07/14 05:34:55;;;;;;;;;5.67;5.67;;;;;21.07;49.33;101048.34;5076874;28;50781;-66
2023/07/14 05:37:20;;;;;;;;;7.33;6.00;;;;;21.06;49.23;101041.28;5077664;28;45622;-67
2023/07/14 05:39:45;;;;;;;;;1.00;1.00;;;;;21.16;49.14;101047.94;5076896;27;47270;-67
2023/07/14 05:42:11;;;;;;;;;3.67;3.67;;;;;21.19;48.55;101049.41;5077101;28;45297;-67
2023/07/14 05:44:37;;;;;;;;;3.00;3.00;;;;;21.19;48.49;101069.16;5077296;28;45335;-67
2023/07/14 05:47:03;;;;;;;;;3.33;3.33;;;;;21.13;48.73;101063.75;5077333;28;45462;-67
2023/07/14 05:49:28;;;;;;;;;3.67;3.67;;;;;21.07;48.49;101048.34;5077025;28;45520;-69
2023/07/14 05:51:54;;;;;;;;;6.00;4.00;;;;;21.20;48.56;101068.13;5077062;27;45294;-67
2023/07/14 05:54:23;;;;;;;;;6.00;5.67;;;;;21.27;48.82;101060.06;5076750;28;45432;-66
2023/07/14 05:56:50;;;;;;;;;3.00;3.00;;;;;21.27;48.46;101043.00;5058666;28;45341;-67
2023/07/14 05:59:16;;;;;;;;;5.67;5.00;;;;;21.41;48.50;101050.91;5076779;28;47848;-66
2023/07/14 06:01:41;;;;;;;;;5.00;3.00;;;;;21.47;48.13;101044.69;5077075;27;45395;-67
2023/07/14 06:04:07;;;;;;;;;7.33;5.67;;;;;21.55;47.59;101044.47;5079198;27;45233;-67
2023/07/14 06:06:32;;;;;;;;;4.33;3.67;;;;;21.55;47.51;101041.75;5079821;27;49593;-69
2023/07/14 06:09:00;;;;;;;;;3.67;3.67;;;;;21.58;47.25;101032.38;5080273;27;46553;-68
2023/07/14 06:11:26;;;;;;;;;4.00;4.00;;;;;21.51;47.30;101045.09;5080233;27;45360;-67
2023/07/14 06:13:51;;;;;;;;;4.33;3.67;;;;;21.48;46.96;101054.47;5080388;28;45430;-67
2023/07/14 06:16:16;;;;;;;;;4.00;3.00;;;;;21.58;47.24;101059.44;5079852;27;58831;-67
2023/07/14 06:18:42;;;;;;;;;4.00;4.00;;;;;21.69;46.91;101039.06;5079642;28;54418;-67
2023/07/14 06:21:08;;;;;;;;;4.00;4.00;;;;;21.58;47.15;101018.03;5080097;27;45520;-67
2023/07/14 06:23:33;;;;;;;;;4.00;3.00;;;;;21.71;47.04;101048.63;5080206;27;45304;-68
2023/07/14 06:25:59;;;;;;;;;6.00;6.00;;;;;21.74;47.25;101059.03;5080019;27;45281;-68
2023/07/14 06:28:24;;;;;;;;;5.00;5.00;;;;;21.82;46.81;101063.38;5080088;28;46294;-67
2023/07/14 06:30:56;;;;;;;;;5.00;3.33;;;;;21.73;46.44;101038.41;5079959;28;45260;-67
2023/07/14 06:33:22;;;;;;;;;6.33;3.33;;;;;21.84;46.73;101047.78;5080114;28;45346;-67
2023/07/14 06:35:47;;;;;;;;;3.00;3.00;;;;;21.95;46.27;101035.47;5080391;27;45486;-67
2023/07/14 06:38:13;;;;;;;;;3.00;3.00;;;;;21.69;46.40;100984.94;5079510;28;48033;-67
2023/07/14 06:40:38;;;;;;;;;5.00;4.00;;;;;21.86;46.27;101011.34;5079208;28;63215;-67
2023/07/14 06:43:07;;;;;;;;;6.33;5.00;;;;;21.94;46.12;101020.25;5061740;28;45423;-67
2023/07/14 06:45:33;;;;;;;;;6.67;5.67;;;;;21.85;46.09;101009.69;5079884;27;45545;-68
2023/07/14 06:47:58;;;;;;;;;6.00;6.00;;;;;21.88;45.77;101023.81;5061198;27;48909;-68
2023/07/14 06:50:23;;;;;;;;;6.33;6.33;;;;;21.90;45.42;101010.91;5079813;28;45360;-68
2023/07/14 06:52:51;;;;;;;;;5.00;5.00;;;;;21.94;45.75;101012.97;5079930;27;45383;-67
2023/07/14 06:55:17;;;;;;;;;6.33;6.33;;;;;21.88;45.13;100992.19;5061453;28;45241;-67
2023/07/14 06:57:42;;;;;;;;;4.00;4.00;;;;;21.96;45.19;101010.88;5079322;27;46217;-67
2023/07/14 07:00:11;;;;;;;;;6.33;5.33;;;;;21.95;45.58;101011.94;5079700;27;45399;-67
2023/07/14 07:02:36;;;;;;;;;9.33;5.67;;;;;21.96;45.21;101016.28;5061281;28;45329;-67
2023/07/14 07:05:04;;;;;;;;;6.33;5.00;;;;;21.90;45.25;101009.03;5079831;28;45553;-66
2023/07/14 07:07:30;;;;;;;;;7.67;5.00;;;;;22.01;45.52;101002.13;5079461;27;46580;-67
2023/07/14 07:09:56;;;;;;;;;7.00;6.00;;;;;22.01;44.84;100994.81;5078954;27;52266;-67
2023/07/14 07:12:22;;;;;;;;;5.33;4.33;;;;;21.64;45.01;100939.56;5079496;28;45375;-69
2023/07/14 07:14:48;;;;;;;;;5.67;5.67;;;;;22.10;44.90;101006.31;5078268;27;45455;-66
2023/07/14 07:17:13;;;;;;;;;6.00;5.00;;;;;22.15;44.96;101001.06;5079139;27;45341;-66
2023/07/14 07:19:39;;;;;;;;;5.33;5.33;;;;;22.15;44.67;100987.53;5078875;28;45257;-67
2023/07/14 07:22:07;;;;;;;;;4.67;4.67;;;;;22.24;45.06;100986.25;5060926;28;45590;-66
2023/07/14 07:24:32;;;;;;;;;5.33;5.00;;;;;22.32;44.88;100993.31;5061085;28;45296;-66
2023/07/14 07:26:58;;;;;;;;;6.67;6.67;;;;;22.39;44.57;100994.09;5078663;27;47238;-66
2023/07/14 07:29:25;;;;;;;;;8.00;5.00;;;;;22.54;44.44;100981.09;5079080;28;45363;-67
2023/07/14 07:31:50;;;;;;;;;8.00;6.00;;;;;22.55;44.08;100966.50;5060725;28;45285;-66
2023/07/14 07:34:16;;;;;;;;;5.00;4.33;;;;;22.54;44.35;100943.16;5079241;28;45416;-66
2023/07/14 07:36:42;;;;;;;;;6.33;6.33;;;;;22.55;44.12;100928.56;5078738;27;46365;-66
2023/07/14 07:39:07;;;;;;;;;5.00;5.00;;;;;23.00;43.94;100972.69;5078679;27;45274;-66
2023/07/14 07:41:33;;;;;;;;;7.33;7.33;;;;;22.97;43.49;100947.91;5078565;27;45562;-68
2023/07/14 07:43:58;;;;;;;;;5.67;5.67;;;;;23.22;43.83;100967.72;5078687;27;45566;-67
2023/07/14 07:46:27;;;;;;;;;7.00;6.00;;;;;23.21;43.02;100966.06;5078044;28;45476;-66
2023/07/14 07:48:53;;;;;;;;;7.00;6.00;;;;;23.13;42.71;100955.50;5078436;28;45557;-67
2023/07/14 07:51:18;;;;;;;;;6.67;5.00;;;;;23.32;42.88;100968.06;5078652;28;45541;-66
2023/07/14 07:53:44;;;;;;;;;8.67;5.67;;;;;23.42;42.61;100955.84;5078095;28;45319;-66
2023/07/14 07:56:13;;;;;;;;;8.00;5.00;;;;;23.37;42.23;100916.66;5078315;28;46916;-68
2023/07/14 07:58:38;;;;;;;;;6.00;4.67;;;;;23.65;42.47;100934.38;5078264;28;45461;-68
2023/07/14 08:01:05;;;;;;;;;4.67;4.67;;;;;23.97;41.83;100938.59;5060250;27;45659;-67
2023/07/14 08:03:31;;;;;;;;;6.00;5.00;;;;;24.12;41.19;100934.66;5078709;27;45535;-67
2023/07/14 08:06:02;;;;;;;;;6.67;5.33;;;;;24.20;40.75;100934.34;5078235;27;47581;-66
2023/07/14 08:08:28;;;;;;;;;4.00;4.00;;;;;24.23;40.60;100934.72;5078138;27;45273;-67
2023/07/14 08:10:54;;;;;;;;;3.00;3.00;;;;;24.26;40.85;100922.56;5078198;27;45275;-67
2023/07/14 08:13:19;;;;;;;;;4.00;4.00;;;;;24.26;41.03;100919.84;5078476;28;45435;-66
2023/07/14 08:15:45;;;;;;;;;7.33;7.00;;;;;24.25;40.56;100910.03;5078209;28;45462;-66
2023/07/14 08:18:10;;;;;;;;;4.67;4.67;;;;;24.29;40.64;100888.69;5060048;28;45645;-68
2023/07/14 08:20:37;;;;;;;;;6.33;5.00;;;;;24.45;40.35;100918.78;5078303;28;45532;-67
2023/07/14 08:23:10;;;;;;;;;4.33;4.33;;;;;24.55;40.25;100916.31;5078429;27;45562;-68
2023/07/14 08:25:37;;;;;;;;;8.00;6.33;;;;;24.66;40.12;100900.28;5058903;28;47381;-67
2023/07/14 08:28:04;;;;;;;;;3.67;3.67;;;;;24.90;39.91;100903.88;5077469;28;45359;-66
2023/07/14 08:30:29;;;;;;;;;4.00;4.00;;;;;25.10;39.29;100907.94;5078414;28;45592;-66
2023/07/14 08:32:54;;;;;;;;;4.33;4.33;;;;;25.31;38.90;100917.41;5060186;28;45428;-67
2023/07/14 08:35:20;;;;;;;;;5.00;5.00;;;;;25.22;38.46;100885.31;5077699;28;45506;-67
2023/07/14 08:37:45;;;;;;;;;5.67;5.00;;;;;25.51;38.09;100911.59;5042744;28;45371;-67
2023/07/14 08:40:13;;;;;;;;;2.00;2.00;;;;;25.24;38.74;100850.56;5077607;28;45389;-67
2023/07/14 08:43:03;;;;;;;;;6.67;6.67;;;;;25.66;38.20;100902.94;5078005;27;45514;-68
2023/07/14 08:45:51;;;;;;;;;4.33;4.00;;;;;25.78;37.36;100907.31;5077374;28;47366;-67
2023/07/14 08:48:31;;;;;;;;;3.00;3.00;;;;;25.88;36.61;100894.97;5059551;28;45668;-69
2023/07/14 08:51:09;;;;;;;;;4.00;3.67;;;;;25.89;36.31;100878.41;5077540;27;45299;-68
2023/07/14 08:53:34;;;;;;;;;4.67;3.67;;;;;26.03;36.14;100876.22;5077759;27;45376;-68
2023/07/14 08:56:05;;;;;;;;;7.00;5.00;;;;;26.12;35.82;100854.84;5077115;28;46176;-68
2023/07/14 08:58:36;;;;;;;;;2.33;2.33;;;;;26.28;34.99;100862.25;5077576;28;45371;-67
2023/07/14 09:01:09;;;;;;;;;3.00;3.00;;;;;26.30;34.74;100841.84;5077923;28;45310;-67
2023/07/14 09:03:46;;;;;;;;;3.00;3.00;;;;;26.47;34.54;100843.81;5077789;27;45538;-67
2023/07/14 09:06:17;;;;;;;;;4.00;4.00;;;;;26.57;33.85;100844.78;5077325;28;46624;-67
2023/07/14 09:08:44;;;;;;;;;4.33;3.33;;;;;26.56;33.99;100834.13;5059133;28;45606;-67
2023/07/14 09:11:35;;;;;;;;;5.00;3.00;;;;;26.60;33.71;100838.81;5077050;28;45409;-67
2023/07/14 09:14:09;;;;;;;;;2.67;2.67;;;;;26.60;33.67;100835.28;5077856;28;45534;-67
2023/07/14 09:16:40;;;;;;;;;4.00;4.00;;;;;26.58;33.67;100826.53;5077164;28;45956;-66
2023/07/14 09:19:26;;;;;;;;;3.33;3.33;;;;;26.67;33.75;100825.06;5058713;28;45266;-67
2023/07/14 09:22:20;;;;;;;;;3.00;3.00;;;;;26.60;33.96;100827.91;5077400;27;45552;-68
2023/07/14 09:25:10;;;;;;;;;4.33;4.00;;;;;26.67;33.77;100822.31;5076155;27;45459;-66
2023/07/14 09:27:37;;;;;;;;;4.33;3.33;;;;;26.70;32.87;100813.63;5077072;27;46451;-67
2023/07/14 09:30:17;;;;;;;;;4.00;4.00;;;;;26.64;33.07;100806.47;5076838;28;45361;-66
2023/07/14 09:32:49;;;;;;;;;3.00;3.00;;;;;26.29;32.63;100733.91;5077090;28;45402;-69
2023/07/14 09:35:20;;;;;;;;;5.00;5.00;;;;;26.71;32.65;100809.00;5058845;28;45647;-68
2023/07/14 09:37:57;;;;;;;;;5.00;4.00;;;;;26.70;32.53;100810.91;5075928;28;45760;-68
2023/07/14 09:40:25;;;;;;;;;3.33;3.33;;;;;25.96;32.34;100672.03;5076789;28;45369;-68
2023/07/14 09:42:53;;;;;;;;;2.33;2.33;;;;;26.79;32.89;100803.94;5077118;28;45391;-68
2023/07/14 09:45:28;;;;;;;;;2.33;2.00;;;;;26.83;32.73;100805.13;5058950;28;45253;-68
2023/07/14 09:48:00;;;;;;;;;4.00;2.67;;;;;26.76;32.51;100771.72;5076909;27;47633;-66
2023/07/14 09:50:28;;;;;;;;;3.00;3.00;;;;;26.90;32.71;100792.13;5076841;28;45467;-66
2023/07/14 09:53:02;;;;;;;;;1.67;1.67;;;;;26.95;31.90;100796.81;5076802;28;45490;-67
2023/07/14 09:55:42;;;;;;;;;3.00;3.00;;;;;27.02;31.79;100783.03;5076858;28;45443;-67
2023/07/14 09:58:13;;;;;;;;;3.33;3.33;;;;;27.01;31.67;100770.47;5076435;27;45476;-67
2023/07/14 10:00:40;;;;;;;;;4.00;4.00;;;;;27.13;32.66;100779.38;5076813;28;45359;-68
2023/07/14 10:03:08;;;;;;;;;3.00;3.00;;;;;27.15;32.36;100772.56;5076522;28;45360;-67
2023/07/14 10:05:44;;;;;;;;;5.00;4.00;;;;;27.20;31.37;100771.81;5076934;28;45327;-67
2023/07/14 10:08:28;;;;;;;;;3.67;2.00;;;;;27.19;31.67;100756.50;5076663;28;46424;-67
2023/07/14 10:10:58;;;;;;;;;5.00;4.00;;;;;27.14;31.33;100748.25;5076173;28;45537;-67
2023/07/14 10:13:27;;;;;;;;;3.33;3.33;;;;;26.96;30.94;100739.28;5076987;28;45257;-66
2023/07/14 10:16:04;;;;;;;;;4.00;4.00;;;;;26.88;31.02;100744.34;5076767;27;45386;-67
2023/07/14 10:18:30;;;;;;;;;7.33;6.33;;;;;26.87;31.72;100746.25;5058032;28;47883;-67
2023/07/14 10:21:06;;;;;;;;;7.33;4.33;;;;;26.90;31.38;100734.00;5076544;28;45276;-67
2023/07/14 10:23:32;;;;;;;;;3.67;3.67;;;;;26.89;31.51;100719.53;5076549;28;45317;-69
2023/07/14 10:25:58;;;;;;;;;5.00;3.00;;;;;26.95;31.79;100734.91;5076582;28;45549;-69
2023/07/14 10:28:29;;;;;;;;;9.67;9.00;;;;;26.62;31.82;100677.69;5076258;27;46346;-69
2023/07/14 10:31:01;;;;;;;;;5.67;5.00;;;;;26.75;31.40;100723.69;5076216;28;45375;-67
2023/07/14 10:33:38;;;;;;;;;7.00;7.00;;;;;26.64;31.69;100709.13;5076214;28;45419;-67
2023/07/14 10:36:11;;;;;;;;;3.33;3.33;;;;;26.59;32.61;100694.56;5076556;28;45480;-67
2023/07/14 10:38:55;;;;;;;;;4.33;4.33;;;;;26.76;32.61;100725.34;5075978;27;46828;-67
2023/07/14 10:41:24;;;;;;;;;4.00;4.00;;;;;26.59;32.17;100683.66;5040780;28;45514;-67
2023/07/14 10:43:57;;;;;;;;;3.67;3.67;;;;;26.83;32.24;100706.06;5076402;28;45530;-66
2023/07/14 10:46:35;;;;;;;;;4.00;2.33;;;;;26.89;31.99;100705.91;5076290;28;45476;-69
2023/07/14 10:49:21;;;;;;;;;4.00;2.67;;;;;26.95;31.84;100691.25;5076629;28;45655;-68
2023/07/14 10:51:54;;;;;;;;;3.33;3.33;;;;;26.74;32.09;100648.41;5079481;27;45396;-68
2023/07/14 10:54:34;;;;;;;;;3.00;3.00;;;;;26.96;31.42;100668.31;5079522;28;45354;-68
2023/07/14 10:57:11;;;;;;;;;4.00;4.00;;;;;27.10;31.71;100676.16;5079488;27;45230;-67
2023/07/14 10:59:48;;;;;;;;;3.33;3.33;;;;;27.03;31.26;100670.91;5061193;28;47937;-69
2023/07/14 11:02:22;;;;;;;;;2.33;2.33;;;;;27.05;31.67;100657.84;5079239;27;45449;-68
2023/07/14 11:05:13;;;;;;;;;3.33;3.00;;;;;27.08;32.28;100634.66;5079544;27;45335;-66
2023/07/14 11:07:39;;;;;;;;;4.00;3.33;;;;;27.11;31.03;100642.34;5079760;27;45237;-66
2023/07/14 11:10:16;;;;;;;;;4.00;3.00;;;;;27.02;31.88;100638.41;5060429;28;47458;-67
2023/07/14 11:13:14;;;;;;;;;2.00;2.00;;;;;27.03;31.51;100627.25;5079235;27;45427;-67
2023/07/14 11:15:48;;;;;;;;;2.67;2.67;;;;;27.13;31.55;100619.16;5045975;28;45388;-68
2023/07/14 11:18:58;;;;;;;;;3.67;3.67;;;;;27.10;31.31;100625.16;5060985;28;45511;-67
2023/07/14 11:21:53;;;;;;;;;2.00;2.00;;;;;27.12;31.40;100616.69;4996370;28;45788;-67
2023/07/14 11:24:33;;;;;;;;;1.00;1.00;;;;;27.17;31.36;100616.75;4996310;28;45312;-67
2023/07/14 11:27:36;;;;;;;;;3.67;3.67;;;;;27.29;31.03;100620.16;5061709;28;45540;-66
2023/07/14 11:30:19;;;;;;;;;3.33;3.00;;;;;27.31;30.84;100598.06;4996245;28;45575;-67
2023/07/14 11:32:56;;;;;;;;;4.33;4.33;;;;;27.43;30.90;100604.16;5055719;28;46617;-67
2023/07/14 11:35:42;;;;;;;;;9.33;7.33;;;;;27.43;30.16;100602.28;5059895;28;45466;-66